Ana Sayfa
METAR-TAF:

METAR-TAF

Havaalanları :

Weatherford, Oklahoma, Amerika Birleşik Devletleri

Enlem: 35-32-45N, Boylam: 098-40-07W, yükseklik: 489 m

Güncel hava durumu gözlemi

Rapor saat 20:15 UTC de 21 dakika önce yapıldı.
Rüzgar güney/güneydoğudan 13 kt ve 19 kt'a kadar ani rüzgarlar
Sıcaklık 32°C
Nem 41%
Basınç 1015 hPa
Görüş mesafesi: 16.1 km
6000 ft yükseklikte parçalı bulutlu

METAR: KOJA 172015Z AUTO 16013G19KT 10SM SCT060 32/17 A2998 RMK AO2

Saat: 15:36 (20:36 UTC)


TAF: eksik

4.000'den fazla havaalanı için hava durumu gözlemleri ve tahminleri (METAR ve TAF raporları).

Kullanılabilir istasyonlar harita üzerinde sarı ve kırmızı noktalarla gösterilir.

İstasyonun adını görmek için fareyi noktanın üzerinde gezdirin.

Sonrasında hava gözlem ve tahminlerini görmek için tıklayın.

Haritayı değiştirmek için: yaklaştırmak için siyah artı işaretli yeşil düğmeye ve uzaklaştırmak için de eksi işaretli düğmeye hızla tıklayın; bitişik haritalar için yeşil okları kullanın.


METAR-TAF: